Time;durP1;ratioP1;P1;durP2;ratioP2;P2;SDS_P1;SDS_P2;PMS_P1;PMS_P2;Temp;Humidity;BMP_temperature;BMP_pressure;BME280_temperature;BME280_humidity;BME280_pressure;Samples;Min_cycle;Max_cycle;Signal;HPM_P1;HPM_P2
2023/06/18 00:00:53;;;;;;;9.70;6.35;;;;;;;20.07;57.71;101285.16;5075697;28;20037;-83
2023/06/18 00:03:19;;;;;;;8.75;6.78;;;;;;;20.08;56.87;101294.66;5075491;28;20038;-81
2023/06/18 00:05:44;;;;;;;9.32;7.22;;;;;;;19.95;56.85;101279.25;5075422;28;20107;-83
2023/06/18 00:08:10;;;;;;;10.10;7.30;;;;;;;20.05;56.85;101293.13;5074160;28;20508;-80
2023/06/18 00:10:35;;;;;;;11.40;7.10;;;;;;;19.87;57.18;101279.19;5075520;28;20501;-83
2023/06/18 00:13:00;;;;;;;12.55;7.28;;;;;;;19.91;58.28;101289.22;5075381;28;20029;-86
2023/06/18 00:15:26;;;;;;;8.95;7.15;;;;;;;19.79;57.63;101268.59;5074945;28;20044;-82
2023/06/18 00:17:51;;;;;;;9.57;7.20;;;;;;;19.82;57.87;101282.22;5075197;28;20447;-84
2023/06/18 00:20:17;;;;;;;9.75;6.68;;;;;;;19.66;59.57;101268.91;5075260;28;20020;-81
2023/06/18 00:22:43;;;;;;;12.65;8.05;;;;;;;19.67;58.52;101274.03;5075146;28;20080;-81
2023/06/18 00:25:09;;;;;;;9.85;7.95;;;;;;;19.74;58.75;101296.06;5075178;28;20033;-86
2023/06/18 00:27:35;;;;;;;12.10;7.28;;;;;;;19.74;59.03;101288.19;5075530;28;20436;-85
2023/06/18 00:30:02;;;;;;;9.38;7.60;;;;;;;19.44;59.70;101243.88;5074893;28;20111;-83
2023/06/18 00:32:28;;;;;;;9.50;7.50;;;;;;;19.53;60.92;101274.47;5074748;28;20029;-85
2023/06/18 00:34:53;;;;;;;10.18;7.70;;;;;;;19.62;60.81;101286.72;5075081;28;20035;-86
2023/06/18 00:37:20;;;;;;;10.63;7.43;;;;;;;19.61;60.10;101282.47;5073792;28;20040;-84
2023/06/18 00:39:46;;;;;;;11.25;8.45;;;;;;;19.56;59.64;101274.19;5075037;28;20025;-85
2023/06/18 00:42:12;;;;;;;10.35;6.93;;;;;;;19.51;61.68;101280.81;5075032;28;20027;-83
2023/06/18 00:44:41;;;;;;;12.70;7.75;;;;;;;19.36;62.80;101264.72;5074434;28;20107;-84
2023/06/18 00:47:11;;;;;;;10.65;7.50;;;;;;;19.27;63.50;101266.44;5074794;28;20040;-79
2023/06/18 00:49:37;;;;;;;9.13;7.03;;;;;;;19.20;64.46;101252.25;5074904;28;20029;-83
2023/06/18 00:52:03;;;;;;;10.25;7.45;;;;;;;19.12;64.76;101250.34;5074687;28;20116;-80
2023/06/18 00:54:32;;;;;;;10.32;7.53;;;;;;;18.91;65.14;101226.97;5074650;28;20112;-80
2023/06/18 00:56:59;;;;;;;13.23;9.02;;;;;;;19.03;63.02;101240.72;5074612;28;20024;-79
2023/06/18 00:59:25;;;;;;;10.55;8.10;;;;;;;18.90;65.09;101232.34;5073161;28;20471;-84
2023/06/18 01:01:55;;;;;;;10.18;7.93;;;;;;;19.06;65.10;101261.34;5073302;28;20087;-81
2023/06/18 01:04:22;;;;;;;11.63;7.72;;;;;;;18.86;66.13;101239.63;5074263;28;20506;-83
2023/06/18 01:06:51;;;;;;;10.52;8.05;;;;;;;18.80;66.20;101234.16;5074216;28;20139;-79
2023/06/18 01:09:22;;;;;;;10.80;8.18;;;;;;;18.89;66.57;101249.84;5074374;28;20020;-79
2023/06/18 01:11:51;;;;;;;;;;;;;;;18.96;63.65;101262.34;5074897;28;20082;-79
2023/06/18 01:14:21;;;;;;;12.60;7.82;;;;;;;18.83;66.85;101254.78;5073868;28;19979;-78
2023/06/18 01:16:51;;;;;;;12.75;8.32;;;;;;;18.65;67.98;101256.47;5073936;28;20040;-79
2023/06/18 01:19:44;;;;;;;11.32;8.15;;;;;;;18.68;67.90;101253.56;5074005;28;20082;-78
2023/06/18 01:22:37;;;;;;;12.73;8.02;;;;;;;18.59;68.42;101258.66;5074127;28;20062;-78
2023/06/18 01:25:06;;;;;;;10.80;8.00;;;;;;;18.41;69.60;101241.97;5074119;28;20111;-79
2023/06/18 01:27:40;;;;;;;11.00;8.55;;;;;;;18.50;70.22;101261.25;5073762;28;20032;-79
2023/06/18 01:30:09;;;;;;;9.70;7.95;;;;;;;18.40;70.70;101244.75;5074103;28;20020;-79
2023/06/18 01:32:36;;;;;;;12.50;8.43;;;;;;;18.06;70.16;101200.66;5073892;28;20355;-79
2023/06/18 01:35:04;;;;;;;12.02;8.73;;;;;;;18.14;70.73;101218.28;5073917;28;20040;-79
2023/06/18 01:37:35;;;;;;;12.27;8.77;;;;;;;18.30;71.09;101252.59;5073742;28;20036;-79
2023/06/18 01:40:17;;;;;;;12.02;9.05;;;;;;;18.19;71.43;101244.84;5072463;28;20396;-78
2023/06/18 01:42:52;;;;;;;12.60;9.40;;;;;;;18.22;71.42;101255.03;5073816;28;20062;-79
2023/06/18 01:45:27;;;;;;;10.45;8.38;;;;;;;18.10;71.73;101248.28;5073441;28;20024;-78
2023/06/18 01:47:55;;;;;;;12.82;9.07;;;;;;;17.94;72.09;101227.88;5072540;28;20401;-80
2023/06/18 01:50:22;;;;;;;13.30;10.13;;;;;;;18.05;70.39;101236.44;5073422;28;20115;-79
2023/06/18 01:52:49;;;;;;;12.35;9.13;;;;;;;17.73;72.44;101209.69;5073423;28;20109;-79
2023/06/18 01:55:17;;;;;;;13.32;9.07;;;;;;;17.89;72.85;101236.13;5073080;28;20036;-79
2023/06/18 01:57:42;;;;;;;12.65;9.30;;;;;;;17.84;72.69;101237.50;5073291;28;20031;-78
2023/06/18 02:00:09;;;;;;;13.43;9.13;;;;;;;17.82;72.51;101234.19;5073385;28;20021;-79
2023/06/18 02:02:34;;;;;;;12.43;9.30;;;;;;;17.66;72.85;101218.97;5073221;28;20025;-78
2023/06/18 02:05:00;;;;;;;11.65;9.38;;;;;;;17.64;73.26;101226.94;5072194;28;20374;-78
2023/06/18 02:07:25;;;;;;;11.90;10.00;;;;;;;17.58;73.13;101230.09;5073146;28;20418;-80
2023/06/18 02:09:50;;;;;;;11.77;9.73;;;;;;;17.53;73.47;101228.84;5072869;28;20537;-78
2023/06/18 02:12:16;;;;;;;11.55;9.43;;;;;;;17.50;74.38;101227.28;5073213;28;20029;-81
2023/06/18 02:14:41;;;;;;;12.27;9.02;;;;;;;17.31;74.93;101203.75;5072189;28;20461;-79
2023/06/18 02:17:06;;;;;;;13.02;9.48;;;;;;;17.38;75.29;101226.56;5073107;28;20466;-79
2023/06/18 02:19:32;;;;;;;12.25;10.48;;;;;;;17.32;75.57;101218.44;5072857;28;20094;-79
2023/06/18 02:21:57;;;;;;;13.88;10.25;;;;;;;16.95;75.97;101161.53;5072967;28;20035;-78
2023/06/18 02:24:23;;;;;;;12.23;9.43;;;;;;;17.27;75.49;101223.22;5071489;28;20043;-78
2023/06/18 02:26:48;;;;;;;11.45;10.25;;;;;;;17.20;76.33;101217.69;5071508;28;20098;-78
2023/06/18 02:29:13;;;;;;;13.05;9.75;;;;;;;17.22;76.19;101215.78;5073067;28;20078;-78
2023/06/18 02:31:39;;;;;;;12.52;10.40;;;;;;;16.97;76.69;101195.31;5072612;28;20036;-78
2023/06/18 02:34:04;;;;;;;13.02;10.20;;;;;;;17.10;77.38;101222.03;5072842;28;20036;-79
2023/06/18 02:36:32;;;;;;;12.18;9.52;;;;;;;17.06;77.51;101220.66;5072618;28;20027;-78
2023/06/18 02:38:57;;;;;;;13.80;10.55;;;;;;;16.89;77.78;101202.00;5071125;28;20032;-78
2023/06/18 02:41:23;;;;;;;11.88;10.63;;;;;;;16.76;78.20;101197.94;5072446;28;20422;-78
2023/06/18 02:43:51;;;;;;;11.52;10.05;;;;;;;16.91;78.92;101223.59;5072773;28;20446;-78
2023/06/18 02:46:18;;;;;;;13.15;10.30;;;;;;;16.77;78.41;101192.59;5072644;28;20060;-78
2023/06/18 02:48:43;;;;;;;14.63;10.68;;;;;;;16.91;78.54;101210.56;5072378;28;20024;-79
2023/06/18 02:51:08;;;;;;;16.77;11.55;;;;;;;16.91;78.12;101213.16;5072411;28;20032;-81
2023/06/18 02:53:34;;;;;;;14.48;11.70;;;;;;;16.75;76.73;101188.47;5072621;28;20031;-78
2023/06/18 02:56:01;;;;;;;15.45;12.18;;;;;;;16.74;76.87;101187.66;5072333;28;20100;-78
2023/06/18 02:58:29;;;;;;;14.07;12.13;;;;;;;16.57;77.27;101172.53;5071477;28;20060;-76
2023/06/18 03:00:59;;;;;;;15.07;11.68;;;;;;;16.68;77.60;101198.56;5071121;28;20024;-76
2023/06/18 03:03:25;;;;;;;13.55;12.13;;;;;;;16.75;77.99;101214.56;5072413;28;20445;-76
2023/06/18 03:05:51;;;;;;;14.30;12.65;;;;;;;16.72;77.78;101212.22;5071926;28;20040;-76
2023/06/18 03:08:18;;;;;;;14.68;12.05;;;;;;;16.70;78.51;101217.53;5072295;28;20025;-76
2023/06/18 03:10:44;;;;;;;15.00;12.30;;;;;;;16.74;77.93;101213.72;5072169;28;20473;-76
2023/06/18 03:13:09;;;;;;;14.02;12.52;;;;;;;16.62;78.31;101210.31;5072360;28;20024;-76
2023/06/18 03:15:34;;;;;;;14.35;12.85;;;;;;;16.63;77.82;101205.94;5070764;28;20056;-77
2023/06/18 03:18:00;;;;;;;17.65;13.13;;;;;;;16.63;79.09;101217.19;5071998;28;20017;-80
2023/06/18 03:20:27;;;;;;;14.38;12.88;;;;;;;16.58;79.67;101218.50;5072051;28;20028;-79
2023/06/18 03:22:52;;;;;;;13.65;11.95;;;;;;;16.47;79.75;101195.09;5072131;28;20024;-79
2023/06/18 03:25:19;;;;;;;16.17;13.32;;;;;;;16.51;79.87;101220.78;5070718;28;20390;-79
2023/06/18 03:27:45;;;;;;;16.60;13.07;;;;;;;16.41;80.01;101203.41;5075661;28;20079;-82
2023/06/18 03:30:11;;;;;;;15.43;13.07;;;;;;;16.55;79.90;101221.38;5076255;28;20032;-81
2023/06/18 03:32:37;;;;;;;15.18;13.60;;;;;;;16.36;79.95;101188.16;5076041;28;20094;-83
2023/06/18 03:35:04;;;;;;;16.15;13.32;;;;;;;16.43;78.42;101188.50;5076076;28;20028;-83
2023/06/18 03:37:30;;;;;;;16.15;14.10;;;;;;;16.52;79.45;101212.03;5074803;28;20111;-82
2023/06/18 03:39:59;;;;;;;17.55;13.98;;;;;;;16.58;79.48;101202.88;5075903;28;20016;-81
2023/06/18 03:42:24;;;;;;;17.90;13.85;;;;;;;16.65;79.63;101222.28;5074624;28;20039;-83
2023/06/18 03:44:50;;;;;;;15.65;13.93;;;;;;;16.67;79.49;101220.34;5075658;28;20024;-82
2023/06/18 03:47:16;;;;;;;15.88;13.77;;;;;;;16.55;78.72;101190.91;5075467;28;20035;-82
2023/06/18 03:49:41;;;;;;;16.00;13.68;;;;;;;16.61;78.76;101207.81;5075790;28;20020;-76
2023/06/18 03:52:07;;;;;;;17.70;14.57;;;;;;;16.60;78.91;101196.56;5075857;28;20393;-77
2023/06/18 03:54:32;;;;;;;16.20;13.80;;;;;;;16.70;78.35;101201.88;5075506;28;20033;-84
2023/06/18 03:56:58;;;;;;;17.13;14.18;;;;;;;16.94;78.61;101232.94;5075363;28;20016;-82
2023/06/18 03:59:24;;;;;;;18.75;14.02;;;;;;;16.99;78.53;101238.59;5075605;28;20435;-83
2023/06/18 04:01:50;;;;;;;17.67;13.88;;;;;;;17.04;77.78;101235.59;5075567;28;20021;-80
2023/06/18 04:04:15;;;;;;;18.17;14.85;;;;;;;17.15;77.21;101236.34;5075443;28;20374;-82
2023/06/18 04:06:41;;;;;;;16.55;14.75;;;;;;;17.07;77.69;101222.28;5075366;28;20123;-80
2023/06/18 04:09:06;;;;;;;16.35;14.35;;;;;;;17.10;77.57;101230.69;5075483;28;20052;-80
2023/06/18 04:11:32;;;;;;;17.00;14.75;;;;;;;17.22;77.55;101241.91;5075277;28;20031;-80
2023/06/18 04:13:58;;;;;;;17.70;15.05;;;;;;;17.16;77.58;101224.97;5075454;28;20466;-80
2023/06/18 04:16:23;;;;;;;17.42;14.95;;;;;;;17.29;77.36;101229.13;5074950;28;20132;-84
2023/06/18 04:18:49;;;;;;;15.88;14.18;;;;;;;17.42;76.80;101245.44;5075282;28;20100;-79
2023/06/18 04:21:14;;;;;;;18.15;15.05;;;;;;;17.39;76.01;101217.78;5075452;28;20016;-85
2023/06/18 04:23:42;;;;;;;16.88;15.05;;;;;;;17.57;76.10;101240.66;5075317;28;20082;-80
2023/06/18 04:26:07;;;;;;;16.25;14.45;;;;;;;17.57;75.98;101231.03;5074373;28;20043;-79
2023/06/18 04:28:32;;;;;;;17.88;15.55;;;;;;;17.58;73.50;101224.03;5073930;28;20029;-85
2023/06/18 04:30:58;;;;;;;19.15;15.80;;;;;;;17.75;75.24;101244.34;5075028;28;20032;-84
2023/06/18 04:33:24;;;;;;;17.08;15.13;;;;;;;17.74;75.02;101242.69;5075177;28;20021;-83
2023/06/18 04:35:50;;;;;;;16.98;15.13;;;;;;;17.73;75.89;101241.03;5075098;28;20035;-84
2023/06/18 04:38:15;;;;;;;18.52;14.40;;;;;;;17.68;75.60;101222.28;5074544;28;20033;-85
2023/06/18 04:40:40;;;;;;;16.38;14.10;;;;;;;17.82;75.71;101229.78;5074810;28;20031;-84
2023/06/18 04:43:06;;;;;;;16.85;15.05;;;;;;;17.76;75.51;101220.69;5074782;28;20121;-85
2023/06/18 04:45:31;;;;;;;17.40;15.63;;;;;;;17.90;75.27;101231.75;5074753;28;20052;-86
2023/06/18 04:47:56;;;;;;;18.48;15.70;;;;;;;17.90;74.11;101224.72;5074774;28;20486;-85
2023/06/18 04:50:22;;;;;;;20.05;15.90;;;;;;;18.04;74.18;101236.56;5074837;28;20025;-86
2023/06/18 04:52:47;;;;;;;17.98;15.52;;;;;;;17.97;74.26;101215.38;5073446;28;20024;-84
2023/06/18 04:55:13;;;;;;;17.58;15.38;;;;;;;18.15;73.76;101233.00;5074560;28;20112;-85
2023/06/18 04:57:39;;;;;;;19.08;17.02;;;;;;;18.27;73.83;101234.53;5074560;28;20024;-84
2023/06/18 05:00:05;;;;;;;19.05;15.63;;;;;;;18.14;73.57;101197.38;5074495;28;20029;-83
2023/06/18 05:02:30;;;;;;;21.77;16.35;;;;;;;18.31;70.68;101202.75;5074247;28;20024;-84
2023/06/18 05:04:56;;;;;;;19.90;16.92;;;;;;;18.57;69.57;101229.16;5074428;28;20211;-84
2023/06/18 05:07:22;;;;;;;19.15;17.17;;;;;;;18.60;68.97;101215.81;5074430;28;20024;-86
2023/06/18 05:09:47;;;;;;;18.50;16.15;;;;;;;18.57;70.65;101199.56;5074191;28;20431;-84
2023/06/18 05:12:12;;;;;;;18.45;16.48;;;;;;;18.80;71.08;101221.91;5074270;28;20040;-85
2023/06/18 05:14:38;;;;;;;19.35;17.20;;;;;;;18.86;71.09;101217.88;5073971;28;20103;-84
2023/06/18 05:17:03;;;;;;;19.50;16.45;;;;;;;19.04;69.17;101225.81;5074083;28;20039;-84
2023/06/18 05:19:29;;;;;;;19.13;16.63;;;;;;;19.13;69.30;101228.41;5074131;28;20028;-84
2023/06/18 05:21:54;;;;;;;20.08;17.23;;;;;;;19.15;66.22;101187.22;5074247;28;20099;-86
2023/06/18 05:24:19;;;;;;;19.38;17.23;;;;;;;19.62;65.05;101230.88;5073876;28;20032;-84
2023/06/18 05:26:45;;;;;;;19.73;17.65;;;;;;;19.78;65.52;101202.25;5073746;28;20032;-84
2023/06/18 05:29:10;;;;;;;18.65;16.65;;;;;;;20.58;60.18;101247.81;5073951;28;20024;-84
2023/06/18 05:31:35;;;;;;;21.02;16.77;;;;;;;20.93;60.21;101246.91;5074092;28;20496;-80
2023/06/18 05:34:01;;;;;;;20.35;16.95;;;;;;;21.46;58.34;101246.78;5073868;28;20021;-83
2023/06/18 05:36:26;;;;;;;20.20;17.30;;;;;;;22.20;54.93;101233.88;5073965;28;20032;-83
2023/06/18 05:38:53;;;;;;;20.70;16.17;;;;;;;22.72;52.17;101231.75;5073673;28;20029;-78
2023/06/18 05:41:18;;;;;;;16.00;13.57;;;;;;;23.62;52.35;101244.78;5072447;28;20470;-77
2023/06/18 05:43:44;;;;;;;17.25;15.30;;;;;;;24.22;48.10;101250.19;5073588;28;20031;-79
2023/06/18 05:46:09;;;;;;;17.15;14.90;;;;;;;24.74;46.30;101236.25;5073525;28;20074;-80
2023/06/18 05:48:35;;;;;;;15.15;13.05;;;;;;;25.39;44.91;101216.28;5072684;28;20021;-76
2023/06/18 05:51:00;;;;;;;20.60;14.88;;;;;;;26.04;43.17;101249.81;5073455;28;20037;-77
2023/06/18 05:53:26;;;;;;;18.65;16.63;;;;;;;26.32;40.51;101236.66;5073725;28;20025;-79
2023/06/18 05:55:51;;;;;;;17.40;15.60;;;;;;;26.54;39.75;101254.19;5073353;28;20035;-79
2023/06/18 05:58:17;;;;;;;16.52;14.57;;;;;;;26.44;40.50;101224.56;5073535;28;20111;-79
2023/06/18 06:00:42;;;;;;;15.63;14.02;;;;;;;26.45;39.61;101250.06;5073277;28;20468;-82
2023/06/18 06:03:08;;;;;;;17.02;15.30;;;;;;;26.17;40.26;101249.16;5072466;28;20051;-78
2023/06/18 06:05:35;;;;;;;15.05;13.38;;;;;;;25.91;40.25;101226.69;5073324;28;20028;-79
2023/06/18 06:08:00;;;;;;;15.65;13.73;;;;;;;26.09;41.05;101249.28;5073336;28;20024;-80
2023/06/18 06:10:25;;;;;;;17.95;16.05;;;;;;;25.95;40.89;101243.00;5073032;28;20020;-81
2023/06/18 06:12:53;;;;;;;15.98;13.98;;;;;;;25.90;41.26;101254.16;5073142;28;20028;-78
2023/06/18 06:15:18;;;;;;;17.15;15.35;;;;;;;25.69;41.03;101251.44;5072890;28;20052;-78
2023/06/18 06:17:43;;;;;;;17.92;16.08;;;;;;;25.76;41.09;101230.38;5071555;28;20028;-79
2023/06/18 06:20:09;;;;;;;15.55;13.70;;;;;;;26.12;40.52;101223.22;5073340;28;20048;-81
2023/06/18 06:22:34;;;;;;;18.58;15.57;;;;;;;26.68;38.94;101259.63;5073008;28;20036;-81
2023/06/18 06:25:00;;;;;;;18.23;16.42;;;;;;;26.94;36.94;101259.81;5073010;28;20032;-80
2023/06/18 06:27:25;;;;;;;16.52;14.35;;;;;;;27.18;38.28;101260.41;5072851;28;20043;-80
2023/06/18 06:29:50;;;;;;;18.75;16.73;;;;;;;27.22;37.86;101227.16;5072899;28;20114;-79
2023/06/18 06:32:16;;;;;;;18.20;16.30;;;;;;;27.39;36.55;101260.31;5072479;28;20039;-80
2023/06/18 06:34:41;;;;;;;16.77;14.98;;;;;;;26.83;37.94;101231.19;5072977;28;20039;-81
2023/06/18 06:37:07;;;;;;;18.27;15.45;;;;;;;26.38;38.47;101262.44;5072696;28;20029;-85
2023/06/18 06:39:33;;;;;;;16.23;14.48;;;;;;;25.87;39.23;101251.91;5072628;28;20026;-83
2023/06/18 06:41:58;;;;;;;18.15;16.25;;;;;;;25.65;39.90;101266.03;5072606;28;20113;-80
2023/06/18 06:44:23;;;;;;;19.20;16.80;;;;;;;25.13;40.50;101237.91;5072502;28;20024;-84
2023/06/18 06:46:49;;;;;;;17.60;15.57;;;;;;;24.99;41.63;101273.03;5072503;28;20110;-84
2023/06/18 06:49:14;;;;;;;15.07;12.70;;;;;;;24.72;43.41;101306.94;5072436;28;20028;-80
2023/06/18 06:51:40;;;;;;;20.02;17.95;;;;;;;23.99;43.07;101318.78;5072712;28;20020;-81
2023/06/18 06:54:05;;;;;;;20.58;18.48;;;;;;;23.50;45.38;101314.63;5054674;28;20040;-80
2023/06/18 06:56:31;;;;;;;19.33;17.40;;;;;;;22.87;46.72;101276.69;5072528;28;20107;-79
2023/06/18 06:58:57;;;;;;;17.92;16.02;;;;;;;22.86;47.01;101301.38;5072745;28;20520;-80
2023/06/18 07:01:22;;;;;;;16.20;13.00;;;;;;;22.78;48.10;101299.53;5072663;28;20045;-80
2023/06/18 07:03:48;;;;;;;17.80;15.98;;;;;;;22.45;47.58;101275.03;5072437;28;20083;-80
2023/06/18 07:06:13;;;;;;;19.27;14.88;;;;;;;22.59;48.31;101316.47;5072470;28;20060;-83
2023/06/18 07:08:39;;;;;;;17.50;15.15;;;;;;;22.43;47.54;101303.31;5072594;28;20469;-85
2023/06/18 07:11:04;;;;;;;15.85;12.90;;;;;;;22.48;47.40;101313.34;5072574;28;20074;-83
2023/06/18 07:13:29;;;;;;;16.33;12.35;;;;;;;22.55;47.34;101314.34;5070799;28;20033;-80
2023/06/18 07:15:55;;;;;;;15.20;11.77;;;;;;;22.59;47.26;101313.84;5072562;28;20128;-79
2023/06/18 07:18:20;;;;;;;15.40;11.60;;;;;;;22.70;47.31;101312.69;5072726;28;20028;-79
2023/06/18 07:20:46;;;;;;;14.18;11.80;;;;;;;22.71;46.47;101289.81;5073131;28;20067;-79
2023/06/18 07:23:11;;;;;;;14.50;11.27;;;;;;;22.81;46.21;101275.53;5072940;28;20020;-80
2023/06/18 07:25:36;;;;;;;13.30;10.80;;;;;;;23.15;46.27;101308.78;5072300;28;20028;-81
2023/06/18 07:28:02;;;;;;;13.38;9.40;;;;;;;23.35;45.44;101311.88;5072570;28;20031;-76
2023/06/18 07:30:28;;;;;;;12.43;10.10;;;;;;;23.32;44.96;101293.78;5072397;28;20054;-84
2023/06/18 07:32:53;;;;;;;11.75;8.95;;;;;;;23.31;47.10;101286.84;5072133;28;20388;-81
2023/06/18 07:35:18;;;;;;;11.02;9.50;;;;;;;23.56;44.32;101306.88;5071923;28;20035;-82
2023/06/18 07:37:44;;;;;;;13.60;8.75;;;;;;;23.60;45.05;101300.31;5072007;28;20036;-81
2023/06/18 07:40:10;;;;;;;12.95;8.50;;;;;;;23.68;44.56;101308.16;5071803;28;20029;-81
2023/06/18 07:42:36;;;;;;;12.50;8.77;;;;;;;23.92;44.93;101298.53;5070751;28;20036;-81
2023/06/18 07:45:01;;;;;;;11.93;8.23;;;;;;;24.30;44.29;101294.19;5072034;28;20032;-78
2023/06/18 07:47:26;;;;;;;11.25;8.70;;;;;;;24.48;43.94;101283.34;5071735;28;20032;-80
2023/06/18 07:49:52;;;;;;;12.48;8.55;;;;;;;24.85;42.01;101307.16;5071789;28;20031;-78
2023/06/18 07:52:17;;;;;;;12.48;9.23;;;;;;;24.74;41.63;101251.28;5071872;28;20028;-81
2023/06/18 07:54:43;;;;;;;11.80;8.90;;;;;;;25.31;42.35;101303.63;5072094;28;20082;-78
2023/06/18 07:57:08;;;;;;;12.43;8.88;;;;;;;25.60;41.35;101305.44;5072421;28;20029;-81
2023/06/18 07:59:33;;;;;;;12.07;8.40;;;;;;;25.44;40.84;101258.84;5072024;28;20104;-82
2023/06/18 08:01:58;;;;;;;13.32;8.82;;;;;;;25.77;40.68;101284.94;5070542;28;20033;-78
2023/06/18 08:04:24;;;;;;;10.15;7.97;;;;;;;25.76;40.24;101299.16;5071509;28;20060;-79
2023/06/18 08:06:50;;;;;;;11.55;8.27;;;;;;;25.88;40.93;101287.94;5071572;28;20055;-78
2023/06/18 08:09:16;;;;;;;12.65;9.15;;;;;;;25.80;40.85;101285.38;5071874;28;20081;-76
2023/06/18 08:11:42;;;;;;;12.73;8.20;;;;;;;25.82;41.58;101282.56;5071792;28;20024;-83
2023/06/18 08:14:07;;;;;;;9.55;7.93;;;;;;;25.92;40.87;101288.38;5075502;28;20024;-77
2023/06/18 08:16:33;;;;;;;9.80;7.75;;;;;;;25.86;41.47;101283.81;5074938;28;20056;-81
2023/06/18 08:18:58;;;;;;;9.05;7.63;;;;;;;25.98;41.25;101283.16;5075104;28;20074;-79
2023/06/18 08:21:23;;;;;;;11.63;7.65;;;;;;;26.02;41.11;101268.53;5075240;28;20025;-84
2023/06/18 08:23:50;;;;;;;10.27;8.38;;;;;;;26.11;40.08;101286.97;5075243;28;20047;-80
2023/06/18 08:26:15;;;;;;;11.05;8.00;;;;;;;26.17;40.68;101275.63;5075384;28;20036;-81
2023/06/18 08:28:40;;;;;;;8.63;7.53;;;;;;;26.30;40.41;101281.06;5075176;28;20107;-82
2023/06/18 08:31:06;;;;;;;10.50;7.55;;;;;;;26.40;41.56;101278.94;5075307;28;20033;-83
2023/06/18 08:33:31;;;;;;;9.30;6.82;;;;;;;26.47;39.99;101273.72;5075009;28;20032;-82
2023/06/18 08:35:56;;;;;;;10.90;7.25;;;;;;;26.49;40.50;101275.16;5075290;28;20035;-84
2023/06/18 08:38:22;;;;;;;11.40;7.60;;;;;;;26.39;42.28;101266.72;5075007;28;20047;-85
2023/06/18 08:40:55;;;;;;;10.10;7.32;;;;;;;26.27;41.63;101252.31;5075207;28;20085;-82
2023/06/18 08:43:26;;;;;;;9.60;7.72;;;;;;;26.28;41.82;101273.28;5074792;28;20034;-80
2023/06/18 08:45:53;;;;;;;9.60;7.35;;;;;;;26.10;42.73;101280.03;5074887;28;20119;-81
2023/06/18 08:48:26;;;;;;;11.18;7.28;;;;;;;26.03;43.21;101274.66;5074736;28;20032;-75
2023/06/18 08:50:59;;;;;;;9.02;7.43;;;;;;;25.92;43.63;101267.19;5074744;28;20029;-78
2023/06/18 08:53:33;;;;;;;10.38;7.65;;;;;;;25.77;43.74;101264.59;5074899;28;20389;-83
2023/06/18 08:56:00;;;;;;;9.20;7.18;;;;;;;25.92;44.57;101273.31;5074601;28;20414;-81
2023/06/18 08:58:27;;;;;;;9.18;6.85;;;;;;;25.82;43.40;101271.97;5073261;28;20389;-84
2023/06/18 09:00:53;;;;;;;11.85;7.13;;;;;;;25.79;44.24;101273.16;5075199;28;20121;-85
2023/06/18 09:03:20;;;;;;;9.65;7.07;;;;;;;25.77;43.67;101238.16;5074280;28;20017;-85
2023/06/18 09:05:45;;;;;;;11.73;6.80;;;;;;;25.79;44.65;101241.41;5074296;28;20039;-84
2023/06/18 09:08:12;;;;;;;10.07;7.30;;;;;;;25.91;43.77;101271.69;5074556;28;20025;-85
2023/06/18 09:10:37;;;;;;;9.48;7.32;;;;;;;25.87;44.44;101277.53;5074188;28;20031;-82
2023/06/18 09:13:03;;;;;;;14.07;7.63;;;;;;;25.72;45.00;101273.09;5074326;28;20040;-83
2023/06/18 09:15:28;;;;;;;9.52;7.53;;;;;;;25.49;45.36;101260.97;5074480;28;20122;-84
2023/06/18 09:17:54;;;;;;;9.07;6.80;;;;;;;25.49;45.51;101274.19;5056309;28;20071;-88
2023/06/18 09:20:20;;;;;;;8.98;7.15;;;;;;;25.36;45.89;101280.91;5072455;28;20023;-83
2023/06/18 09:22:47;;;;;;;9.00;7.38;;;;;;;25.28;46.35;101281.03;5074052;28;20462;-83
2023/06/18 09:25:22;;;;;;;9.73;7.63;;;;;;;25.12;45.89;101282.00;5074036;28;20500;-84
2023/06/18 09:27:48;;;;;;;10.10;7.90;;;;;;;25.03;46.74;101287.56;5074106;28;20020;-81
2023/06/18 09:30:23;;;;;;;10.20;7.38;;;;;;;24.74;47.39;101262.69;5073927;28;20079;-80
2023/06/18 09:32:49;;;;;;;9.88;7.18;;;;;;;24.77;47.97;101272.06;5073547;28;20392;-78
2023/06/18 09:35:18;;;;;;;9.90;7.65;;;;;;;24.86;48.24;101289.47;5073605;28;20367;-79
2023/06/18 09:37:45;;;;;;;9.55;7.20;;;;;;;24.85;48.37;101274.63;5073787;28;20052;-78
2023/06/18 09:40:23;;;;;;;9.35;7.20;;;;;;;24.94;47.94;101289.41;5073647;28;20020;-80
2023/06/18 09:42:49;;;;;;;8.82;6.93;;;;;;;24.98;47.94;101276.69;5073371;28;20032;-83
2023/06/18 09:45:16;;;;;;;9.43;6.63;;;;;;;24.94;49.08;101254.25;5074416;28;20074;-82
2023/06/18 09:47:45;;;;;;;9.40;7.32;;;;;;;24.95;47.63;101253.25;5073901;28;20024;-82
2023/06/18 09:50:11;;;;;;;8.88;7.40;;;;;;;25.04;47.13;101274.16;5073400;28;20027;-82
2023/06/18 09:52:44;;;;;;;8.82;7.10;;;;;;;25.07;47.67;101281.75;5072179;28;20021;-79
2023/06/18 09:55:29;;;;;;;9.30;7.47;;;;;;;25.08;47.83;101283.38;5073202;28;20025;-78
2023/06/18 09:57:55;;;;;;;8.95;6.95;;;;;;;25.07;48.13;101278.25;5073305;28;20020;-78
2023/06/18 10:00:21;;;;;;;9.57;7.20;;;;;;;25.05;48.55;101281.06;5073095;28;20043;-80
2023/06/18 10:02:47;;;;;;;10.05;7.22;;;;;;;24.91;49.02;101267.81;5073398;28;20077;-78
2023/06/18 10:05:12;;;;;;;10.25;7.28;;;;;;;25.03;50.58;101287.56;5073077;28;20028;-79
2023/06/18 10:07:42;;;;;;;8.77;7.43;;;;;;;24.96;52.24;101279.47;5071702;28;20028;-80
2023/06/18 10:10:13;;;;;;;10.23;7.72;;;;;;;25.01;51.36;101287.69;5073221;28;20032;-80
2023/06/18 10:12:41;;;;;;;9.85;7.65;;;;;;;24.68;51.92;101236.16;5073182;28;20025;-78
2023/06/18 10:15:09;;;;;;;11.65;8.63;;;;;;;24.88;52.81;101271.66;5071481;28;20131;-78
2023/06/18 10:17:38;;;;;;;9.38;7.57;;;;;;;24.83;51.96;101266.06;5073369;28;20055;-81
2023/06/18 10:20:07;;;;;;;11.73;8.52;;;;;;;25.03;53.49;101280.44;5072907;28;20525;-78
2023/06/18 10:22:41;;;;;;;10.13;8.13;;;;;;;24.90;54.14;101277.56;5073454;28;20032;-83
2023/06/18 10:25:07;;;;;;;9.30;8.35;;;;;;;24.83;55.36;101269.53;5074802;28;20036;-85
2023/06/18 10:27:34;;;;;;;12.07;8.00;;;;;;;24.82;53.83;101249.41;5073069;28;20039;-78
2023/06/18 10:30:00;;;;;;;10.25;7.93;;;;;;;24.96;56.51;101260.97;5072920;28;20124;-80
2023/06/18 10:32:26;;;;;;;11.68;8.68;;;;;;;24.72;55.21;101222.44;5072947;28;20166;-82
2023/06/18 10:34:54;;;;;;;9.82;8.52;;;;;;;24.91;53.95;101254.63;5072045;28;20035;-82
2023/06/18 10:37:21;;;;;;;10.32;8.45;;;;;;;24.84;51.95;101234.19;5072802;28;20048;-80
2023/06/18 10:39:56;;;;;;;8.63;7.72;;;;;;;24.84;52.47;101226.25;5072648;28;20024;-80
2023/06/18 10:42:23;;;;;;;10.98;7.95;;;;;;;25.00;51.72;101241.16;5072632;28;20028;-83
2023/06/18 10:44:48;;;;;;;9.43;8.18;;;;;;;25.07;52.20;101238.59;5072712;28;20036;-83
2023/06/18 10:47:24;;;;;;;11.38;8.57;;;;;;;25.20;52.15;101235.34;5072067;28;20070;-82
2023/06/18 10:50:02;;;;;;;10.52;8.13;;;;;;;25.14;50.51;101229.78;5072422;28;20055;-82
2023/06/18 10:52:35;;;;;;;10.05;8.20;;;;;;;25.13;52.35;101216.75;5072734;28;20028;-83
2023/06/18 10:55:10;;;;;;;9.25;8.30;;;;;;;25.31;51.98;101222.50;5072494;28;20028;-83
2023/06/18 10:58:08;;;;;;;9.50;7.85;;;;;;;25.41;51.33;101185.19;5072566;28;20549;-82
2023/06/18 11:00:41;;;;;;;10.80;7.70;;;;;;;25.49;51.78;101211.53;5079617;22;20052;-81
2023/06/18 11:03:17;;;;;;;11.13;8.00;;;;;;;25.55;51.18;101207.31;5052300;28;20021;-82
2023/06/18 11:05:47;;;;;;;9.55;8.55;;;;;;;25.44;51.37;101222.66;5051114;28;20033;-83
2023/06/18 11:08:15;;;;;;;11.23;8.38;;;;;;;25.34;51.94;101216.81;5051147;28;20408;-82
2023/06/18 11:10:45;;;;;;;9.70;8.02;;;;;;;25.72;50.21;101222.00;5052502;28;20028;-81
2023/06/18 11:13:11;;;;;;;7.97;7.18;;;;;;;26.05;49.40;101218.88;5052434;28;20433;-80